createdAt,value
2018-12-13T00:01:40.155Z,16.97
2018-12-13T00:04:08.390Z,16.60
2018-12-13T00:06:36.819Z,17.83
2018-12-13T00:09:06.444Z,20.97
2018-12-13T00:11:34.590Z,16.47
2018-12-13T00:14:02.791Z,17.70
2018-12-13T00:16:31.235Z,19.10
2018-12-13T00:18:59.538Z,19.17
2018-12-13T00:21:27.702Z,18.67
2018-12-13T00:23:55.867Z,16.43
2018-12-13T00:26:24.069Z,16.30
2018-12-13T00:28:52.271Z,18.90
2018-12-13T00:31:20.499Z,17.70
2018-12-13T00:33:48.678Z,17.47
2018-12-13T00:36:16.826Z,20.80
2018-12-13T00:38:45.053Z,18.03
2018-12-13T00:41:13.262Z,17.57
2018-12-13T00:43:41.469Z,16.30
2018-12-13T00:46:10.453Z,19.00
2018-12-13T00:48:38.698Z,16.40
2018-12-13T00:51:06.904Z,18.50
2018-12-13T00:53:35.074Z,15.87
2018-12-13T00:56:03.232Z,18.43
2018-12-13T00:58:31.373Z,19.00
2018-12-13T01:01:00.445Z,20.20
2018-12-13T01:03:28.584Z,20.40
2018-12-13T01:05:56.844Z,18.57
2018-12-13T01:08:25.032Z,19.13
2018-12-13T01:10:53.222Z,17.60
2018-12-13T01:13:21.434Z,20.40
2018-12-13T01:15:49.819Z,17.13
2018-12-13T01:18:17.978Z,16.87
2018-12-13T01:20:46.184Z,16.47
2018-12-13T01:23:14.420Z,16.60
2018-12-13T01:25:42.574Z,15.57
2018-12-13T01:28:10.726Z,16.93
2018-12-13T01:30:38.884Z,15.40
2018-12-13T01:33:07.046Z,15.50
2018-12-13T01:35:35.206Z,12.97
2018-12-13T01:38:04.083Z,15.83
2018-12-13T01:40:32.293Z,14.80
2018-12-13T01:43:00.486Z,13.80
2018-12-13T01:45:28.673Z,12.63
2018-12-13T01:47:56.899Z,11.70
2018-12-13T01:50:25.890Z,11.53
2018-12-13T01:52:54.100Z,14.97
2018-12-13T01:55:22.318Z,12.67
2018-12-13T01:57:51.246Z,12.37
2018-12-13T02:00:19.406Z,13.37
2018-12-13T02:02:47.615Z,12.33
2018-12-13T02:05:15.783Z,12.80
2018-12-13T02:07:43.953Z,14.13
2018-12-13T02:10:12.185Z,15.27
2018-12-13T02:12:40.400Z,13.33
2018-12-13T02:15:08.735Z,13.63
2018-12-13T02:17:36.894Z,12.63
2018-12-13T02:20:06.017Z,15.57
2018-12-13T02:22:34.254Z,14.57
2018-12-13T02:25:02.409Z,14.17
2018-12-13T02:27:30.716Z,14.93
2018-12-13T02:29:58.942Z,15.13
2018-12-13T02:32:27.553Z,15.87
2018-12-13T02:34:55.773Z,17.77
2018-12-13T02:37:24.130Z,17.77
2018-12-13T02:39:52.332Z,17.23
2018-12-13T02:42:20.553Z,18.43
2018-12-13T02:44:48.789Z,20.23
2018-12-13T02:47:17.012Z,21.93
2018-12-13T02:49:45.254Z,22.80
2018-12-13T02:52:13.465Z,20.87
2018-12-13T02:54:42.438Z,21.27
2018-12-13T02:57:10.639Z,22.70
2018-12-13T02:59:38.894Z,21.73
2018-12-13T03:02:07.102Z,22.87
2018-12-13T03:04:35.507Z,21.07
2018-12-13T03:07:03.871Z,21.77
2018-12-13T03:09:32.185Z,22.80
2018-12-13T03:12:00.333Z,21.53
2018-12-13T03:14:28.534Z,22.93
2018-12-13T03:16:56.747Z,22.70
2018-12-13T03:19:25.599Z,24.33
2018-12-13T03:21:53.735Z,22.17
2018-12-13T03:24:21.889Z,25.33
2018-12-13T03:26:50.110Z,25.97
2018-12-13T03:29:18.321Z,21.13
2018-12-13T03:31:46.535Z,21.27
2018-12-13T03:34:14.686Z,19.77
2018-12-13T03:36:42.890Z,20.97
2018-12-13T03:39:11.035Z,19.60
2018-12-13T03:41:39.202Z,21.20
2018-12-13T03:44:07.403Z,18.53
2018-12-13T03:46:35.719Z,22.27
2018-12-13T03:49:03.896Z,21.83
2018-12-13T03:51:32.120Z,22.13
2018-12-13T03:54:00.530Z,23.40
2018-12-13T03:56:28.820Z,18.63
2018-12-13T03:58:57.038Z,19.30
2018-12-13T04:01:25.184Z,18.57
2018-12-13T04:03:53.383Z,18.93
2018-12-13T04:06:21.659Z,20.17
2018-12-13T04:08:49.801Z,21.50
2018-12-13T04:11:18.157Z,17.90
2018-12-13T04:13:46.415Z,18.37
2018-12-13T04:16:14.686Z,21.77
2018-12-13T04:18:42.834Z,18.97
2018-12-13T04:21:11.161Z,17.33
2018-12-13T04:23:39.944Z,17.60
2018-12-13T04:26:08.186Z,14.30
2018-12-13T04:28:36.402Z,14.20
2018-12-13T04:31:04.540Z,13.63
2018-12-13T04:33:32.815Z,13.20
2018-12-13T04:36:02.240Z,16.10
2018-12-13T04:38:30.521Z,13.03
2018-12-13T04:40:58.669Z,12.97
2018-12-13T04:43:26.978Z,11.53
2018-12-13T04:45:55.195Z,11.10
2018-12-13T04:48:23.344Z,10.30
2018-12-13T04:50:52.248Z,9.40
2018-12-13T04:53:20.927Z,7.90
2018-12-13T04:55:49.482Z,7.83
2018-12-13T04:58:17.753Z,9.50
2018-12-13T05:00:45.958Z,9.70
2018-12-13T05:03:14.195Z,10.57
2018-12-13T05:05:42.343Z,10.53
2018-12-13T05:08:10.572Z,10.73
2018-12-13T05:10:49.888Z,11.83
2018-12-13T05:13:18.756Z,12.10
2018-12-13T05:15:46.969Z,12.40
2018-12-13T05:18:16.518Z,11.33
2018-12-13T05:20:44.750Z,11.97
2018-12-13T05:23:12.924Z,13.23
2018-12-13T05:25:41.197Z,12.23
2018-12-13T05:28:09.395Z,11.63
2018-12-13T05:30:37.631Z,11.60
2018-12-13T05:33:05.861Z,11.10
2018-12-13T05:35:34.104Z,11.07
2018-12-13T05:38:02.412Z,11.43
2018-12-13T05:40:30.617Z,10.00
2018-12-13T05:42:58.920Z,9.90
2018-12-13T05:45:27.162Z,11.23
2018-12-13T05:47:55.311Z,9.63
2018-12-13T05:50:23.599Z,9.77
2018-12-13T05:52:51.938Z,11.97
2018-12-13T05:55:20.178Z,9.83
2018-12-13T05:57:48.405Z,8.97
2018-12-13T06:00:16.679Z,9.73
2018-12-13T06:02:45.686Z,8.63
2018-12-13T06:05:14.141Z,10.40
2018-12-13T06:07:42.396Z,9.30
2018-12-13T06:10:10.619Z,8.27
2018-12-13T06:12:39.122Z,7.93
2018-12-13T06:15:07.379Z,7.07
2018-12-13T06:17:35.589Z,7.33
2018-12-13T06:20:04.571Z,8.10
2018-12-13T06:22:32.792Z,7.67
2018-12-13T06:25:01.026Z,7.40
2018-12-13T06:27:29.298Z,7.30
2018-12-13T06:29:59.071Z,6.50
2018-12-13T06:32:27.417Z,6.40
2018-12-13T06:34:55.535Z,6.27
2018-12-13T06:37:23.688Z,6.43
2018-12-13T06:39:53.512Z,6.00
2018-12-13T06:42:21.734Z,6.33
2018-12-13T06:44:49.887Z,7.10
2018-12-13T06:47:18.122Z,6.03
2018-12-13T06:49:46.295Z,5.50
2018-12-13T06:52:15.327Z,6.77
2018-12-13T06:54:43.574Z,5.90
2018-12-13T06:57:12.508Z,5.97
2018-12-13T06:59:40.699Z,6.50
2018-12-13T07:02:08.853Z,6.47
2018-12-13T07:04:36.994Z,6.30
2018-12-13T07:07:05.230Z,6.40
2018-12-13T07:09:33.456Z,6.40
2018-12-13T07:12:01.630Z,6.00
2018-12-13T07:14:29.882Z,7.03
2018-12-13T07:16:58.982Z,5.93
2018-12-13T07:19:27.104Z,5.57
2018-12-13T07:21:55.307Z,5.80
2018-12-13T07:24:23.449Z,6.70
2018-12-13T07:26:51.686Z,6.60
2018-12-13T07:29:19.821Z,6.73
2018-12-13T07:31:48.075Z,6.07
2018-12-13T07:34:16.219Z,6.23
2018-12-13T07:36:44.415Z,5.93
2018-12-13T07:39:12.590Z,5.73
2018-12-13T07:41:40.804Z,6.30
2018-12-13T07:44:08.945Z,6.23
2018-12-13T07:46:37.085Z,6.03
2018-12-13T07:49:05.316Z,5.63
2018-12-13T07:51:33.499Z,5.37
2018-12-13T07:54:01.805Z,5.37
2018-12-13T07:56:29.986Z,5.10
2018-12-13T07:58:58.872Z,5.57
2018-12-13T08:01:27.078Z,6.20
2018-12-13T08:03:55.844Z,6.70
2018-12-13T08:06:24.091Z,7.10
2018-12-13T08:08:52.251Z,5.70
2018-12-13T08:11:20.402Z,5.90
2018-12-13T08:13:48.536Z,7.37
2018-12-13T08:16:16.729Z,9.90
2018-12-13T08:18:44.881Z,6.90
2018-12-13T08:21:13.077Z,7.40
2018-12-13T08:23:41.221Z,7.33
2018-12-13T08:26:09.379Z,7.77
2018-12-13T08:28:37.520Z,9.30
2018-12-13T08:31:05.684Z,8.40
2018-12-13T08:33:33.867Z,10.33
2018-12-13T08:36:02.063Z,9.03
2018-12-13T08:38:30.233Z,10.10
2018-12-13T08:40:58.367Z,10.90
2018-12-13T08:43:26.538Z,10.60
2018-12-13T08:45:54.847Z,11.40
2018-12-13T08:48:22.986Z,9.23
2018-12-13T08:50:51.161Z,8.63
2018-12-13T08:53:19.344Z,9.23
2018-12-13T08:55:47.490Z,9.63
2018-12-13T08:58:15.672Z,10.33
2018-12-13T09:00:43.821Z,11.13
2018-12-13T09:03:12.148Z,12.13
2018-12-13T09:05:40.418Z,12.70
2018-12-13T09:08:08.737Z,11.67
2018-12-13T09:10:36.905Z,12.47
2018-12-13T09:13:05.067Z,12.03
2018-12-13T09:15:33.228Z,11.20
2018-12-13T09:18:01.369Z,10.57
2018-12-13T09:20:29.609Z,11.17
2018-12-13T09:22:57.770Z,10.77
2018-12-13T09:25:26.027Z,10.90
2018-12-13T09:27:54.250Z,11.60
2018-12-13T09:30:22.463Z,12.07
2018-12-13T09:32:50.619Z,11.93
2018-12-13T09:35:18.776Z,10.23
2018-12-13T09:37:47.717Z,12.23
2018-12-13T09:40:16.143Z,10.53
2018-12-13T09:42:44.887Z,10.50
2018-12-13T09:45:13.091Z,10.13
2018-12-13T09:47:41.253Z,10.47
2018-12-13T09:50:09.491Z,9.53
2018-12-13T09:52:37.647Z,9.50
2018-12-13T09:55:06.104Z,8.80
2018-12-13T09:57:34.578Z,9.50
2018-12-13T10:00:03.912Z,9.80
2018-12-13T10:02:32.081Z,8.60
2018-12-13T10:05:00.229Z,8.93
2018-12-13T10:07:28.385Z,9.27
2018-12-13T10:09:56.546Z,9.83
2018-12-13T10:12:24.763Z,8.30
2018-12-13T10:14:52.943Z,9.53
2018-12-13T10:17:21.178Z,8.27
2018-12-13T10:19:49.314Z,7.27
2018-12-13T10:22:17.495Z,6.70
2018-12-13T10:24:45.768Z,7.40
2018-12-13T10:27:13.960Z,6.90
2018-12-13T10:29:42.102Z,6.87
2018-12-13T10:32:11.388Z,6.43
2018-12-13T10:34:39.583Z,6.50
2018-12-13T10:37:07.725Z,6.83
2018-12-13T10:39:35.876Z,8.73
2018-12-13T10:42:04.015Z,7.40
2018-12-13T10:44:35.605Z,7.03
2018-12-13T10:47:04.065Z,7.17
2018-12-13T10:49:32.216Z,6.97
2018-12-13T10:52:00.472Z,6.27
2018-12-13T10:54:28.893Z,6.90
2018-12-13T10:56:57.022Z,8.33
2018-12-13T10:59:25.233Z,6.07
2018-12-13T11:01:59.116Z,5.90
2018-12-13T11:04:27.591Z,6.07
2018-12-13T11:06:55.863Z,5.60
2018-12-13T11:09:24.026Z,5.40
2018-12-13T11:11:52.376Z,5.67
2018-12-13T11:14:20.587Z,6.40
2018-12-13T11:16:48.836Z,7.00
2018-12-13T11:19:16.987Z,6.50
2018-12-13T11:21:45.434Z,6.60
2018-12-13T11:24:13.589Z,6.40
2018-12-13T11:26:41.879Z,6.00
2018-12-13T11:32:15.945Z,4.60
2018-12-13T11:34:44.085Z,5.03
2018-12-13T11:37:12.217Z,4.83
2018-12-13T11:39:40.345Z,5.67
2018-12-13T11:42:08.565Z,4.60
2018-12-13T11:44:36.725Z,4.47
2018-12-13T11:47:04.956Z,4.80
2018-12-13T11:49:33.107Z,4.50
2018-12-13T11:52:01.335Z,4.07
2018-12-13T11:54:32.757Z,4.50
2018-12-13T11:57:00.917Z,4.33
2018-12-13T11:59:29.108Z,5.13
2018-12-13T12:01:57.259Z,4.83
2018-12-13T12:04:25.524Z,4.70
2018-12-13T12:06:53.748Z,5.17
2018-12-13T12:09:21.970Z,5.00
2018-12-13T12:11:50.248Z,4.87
2018-12-13T12:14:18.431Z,5.30
2018-12-13T12:16:47.543Z,4.60
2018-12-13T12:19:15.721Z,4.70
2018-12-13T12:21:43.878Z,4.37
2018-12-13T12:24:12.041Z,4.70
2018-12-13T12:26:40.209Z,4.47
2018-12-13T12:29:08.338Z,5.03
2018-12-13T12:31:36.482Z,5.03
2018-12-13T12:34:04.710Z,4.83
2018-12-13T12:36:32.852Z,5.27
2018-12-13T12:39:01.003Z,4.80
2018-12-13T12:41:29.143Z,5.50
2018-12-13T12:43:57.282Z,5.23
2018-12-13T12:46:25.416Z,5.10
2018-12-13T12:48:53.563Z,6.53
2018-12-13T12:51:21.714Z,5.47
2018-12-13T12:53:49.866Z,5.57
2018-12-13T12:56:18.014Z,5.40
2018-12-13T12:58:46.243Z,5.60
2018-12-13T13:01:14.434Z,5.00
2018-12-13T13:03:42.650Z,5.43
2018-12-13T13:06:10.976Z,5.90
2018-12-13T13:08:39.164Z,5.50
2018-12-13T13:11:07.418Z,4.60
2018-12-13T13:13:35.567Z,4.60
2018-12-13T13:16:03.859Z,3.87
2018-12-13T13:18:32.182Z,4.57
2018-12-13T13:21:00.474Z,4.40
2018-12-13T13:23:28.616Z,4.70
2018-12-13T13:25:56.766Z,5.60
2018-12-13T13:28:24.917Z,7.07
2018-12-13T13:30:53.078Z,7.33
2018-12-13T13:33:21.244Z,7.93
2018-12-13T13:35:49.384Z,8.77
2018-12-13T13:38:17.606Z,8.30
2018-12-13T13:40:45.838Z,8.30
2018-12-13T13:43:13.996Z,7.67
2018-12-13T13:45:42.134Z,8.23
2018-12-13T13:48:10.338Z,7.40
2018-12-13T13:50:38.576Z,6.50
2018-12-13T13:53:06.738Z,5.83
2018-12-13T13:55:34.900Z,6.10
2018-12-13T13:58:03.085Z,5.57
2018-12-13T14:00:31.287Z,5.60
2018-12-13T14:02:59.520Z,6.20
2018-12-13T14:05:27.842Z,6.50
2018-12-13T14:07:55.982Z,6.77
2018-12-13T14:10:24.162Z,7.10
2018-12-13T14:12:52.607Z,8.17
2018-12-13T14:15:20.895Z,7.70
2018-12-13T14:17:49.088Z,8.03
2018-12-13T14:20:17.487Z,7.33
2018-12-13T14:22:45.625Z,7.90
2018-12-13T14:25:13.785Z,7.97
2018-12-13T14:27:41.918Z,7.90
2018-12-13T14:30:11.058Z,7.33
2018-12-13T14:32:39.262Z,7.20
2018-12-13T14:35:07.581Z,7.73
2018-12-13T14:37:35.952Z,6.73
2018-12-13T14:40:04.615Z,7.17
2018-12-13T14:42:32.776Z,7.47
2018-12-13T14:45:00.907Z,6.83
2018-12-13T14:47:29.070Z,8.00
2018-12-13T14:49:57.205Z,7.10
2018-12-13T14:52:25.414Z,7.30
2018-12-13T14:54:53.611Z,7.13
2018-12-13T14:57:21.842Z,7.63
2018-12-13T14:59:50.982Z,8.03
2018-12-13T15:02:19.263Z,7.70
2018-12-13T15:04:47.493Z,6.90
2018-12-13T15:07:15.866Z,8.30
2018-12-13T15:09:44.004Z,6.70
2018-12-13T15:12:12.998Z,8.00
2018-12-13T15:14:41.811Z,7.73
2018-12-13T15:17:09.987Z,7.57
2018-12-13T15:19:38.193Z,8.30
2018-12-13T15:22:06.330Z,9.17
2018-12-13T15:24:34.531Z,9.03
2018-12-13T15:27:02.667Z,9.93
2018-12-13T15:29:30.914Z,9.23
2018-12-13T15:31:59.648Z,10.17
2018-12-13T15:34:28.063Z,11.63
2018-12-13T15:36:56.841Z,11.40
2018-12-13T15:39:25.026Z,10.00
2018-12-13T15:41:53.173Z,9.87
2018-12-13T15:44:21.829Z,9.87
2018-12-13T15:46:50.039Z,8.97
2018-12-13T15:49:18.178Z,9.53
2018-12-13T15:51:46.351Z,9.67
2018-12-13T15:54:14.510Z,9.17
2018-12-13T15:56:42.749Z,9.60
2018-12-13T15:59:10.975Z,10.67
2018-12-13T16:01:39.126Z,10.43
2018-12-13T16:04:07.295Z,10.67
2018-12-13T16:06:35.454Z,10.30
2018-12-13T16:09:05.638Z,10.40
2018-12-13T16:11:33.785Z,10.27
2018-12-13T16:14:02.027Z,10.53
2018-12-13T16:16:30.168Z,9.87
2018-12-13T16:18:58.307Z,9.90
2018-12-13T16:21:26.457Z,9.70
2018-12-13T16:23:54.602Z,11.00
2018-12-13T16:26:22.763Z,12.23
2018-12-13T16:28:50.960Z,12.63
2018-12-13T16:31:19.164Z,12.80
2018-12-13T16:33:47.431Z,12.60
2018-12-13T16:36:15.847Z,12.50
2018-12-13T16:38:43.982Z,13.27
2018-12-13T16:41:13.066Z,12.13
2018-12-13T16:43:41.287Z,11.87
2018-12-13T16:46:09.426Z,11.83
2018-12-13T16:48:37.603Z,11.40
2018-12-13T16:51:05.810Z,11.70
2018-12-13T16:53:33.979Z,12.00
2018-12-13T16:56:02.126Z,10.57
2018-12-13T16:58:30.350Z,10.30
2018-12-13T17:00:58.585Z,10.17
2018-12-13T17:03:38.409Z,12.53
2018-12-13T17:06:06.757Z,11.93
2018-12-13T17:08:34.987Z,12.27
2018-12-13T17:11:03.845Z,12.30
2018-12-13T17:13:32.085Z,12.07
2018-12-13T17:16:00.446Z,11.97
2018-12-13T17:18:28.761Z,13.63
2018-12-13T17:20:56.913Z,14.17
2018-12-13T17:23:25.126Z,14.40
2018-12-13T17:25:53.359Z,13.77
2018-12-13T17:28:21.522Z,14.27
2018-12-13T17:30:49.778Z,16.00
2018-12-13T17:33:18.878Z,13.43
2018-12-13T17:35:47.208Z,13.07
2018-12-13T17:38:15.442Z,12.13
2018-12-13T17:40:43.751Z,13.37
2018-12-13T17:43:11.890Z,13.57
2018-12-13T17:45:40.743Z,14.53
2018-12-13T17:48:08.898Z,12.10
2018-12-13T17:50:37.123Z,13.13
2018-12-13T17:53:05.264Z,12.57
2018-12-13T17:55:33.409Z,12.53
2018-12-13T17:58:01.639Z,12.17
2018-12-13T18:00:30.126Z,11.97
2018-12-13T18:02:58.356Z,12.57
2018-12-13T18:05:26.534Z,12.10
2018-12-13T18:07:54.766Z,10.87
2018-12-13T18:10:29.175Z,10.10
2018-12-13T18:12:53.205Z,11.37
2018-12-13T18:15:21.378Z,10.10
2018-12-13T18:17:49.578Z,9.13
2018-12-13T18:20:17.748Z,9.10
2018-12-13T18:22:46.541Z,9.13
2018-12-13T18:25:14.751Z,9.63
2018-12-13T18:27:42.939Z,8.50
2018-12-13T18:30:11.174Z,7.87
2018-12-13T18:32:39.431Z,8.80
2018-12-13T18:35:08.208Z,8.30
2018-12-13T18:37:36.410Z,7.97
2018-12-13T18:40:05.252Z,8.43
2018-12-13T18:42:33.405Z,7.67
2018-12-13T18:45:01.552Z,7.70
2018-12-13T18:47:29.690Z,7.37
2018-12-13T18:49:57.893Z,7.67
2018-12-13T18:52:26.080Z,7.20
2018-12-13T18:54:54.227Z,7.53
2018-12-13T18:57:22.408Z,8.40
2018-12-13T18:59:51.227Z,8.27
2018-12-13T19:02:20.222Z,7.93
2018-12-13T19:04:48.387Z,8.33
2018-12-13T19:07:16.534Z,9.17
2018-12-13T19:09:44.774Z,7.93
2018-12-13T19:12:12.917Z,8.43
2018-12-13T19:14:41.106Z,8.27
2018-12-13T19:17:09.261Z,7.90
2018-12-13T19:19:37.530Z,7.90
2018-12-13T19:22:05.714Z,8.60
2018-12-13T19:24:33.887Z,8.50
2018-12-13T19:27:02.058Z,9.23
2018-12-13T19:29:30.273Z,8.83
2018-12-13T19:31:58.442Z,9.70
2018-12-13T19:34:26.700Z,9.30
2018-12-13T19:36:55.521Z,9.43
2018-12-13T19:39:23.729Z,9.93
2018-12-13T19:41:51.962Z,10.73
2018-12-13T19:44:20.189Z,9.80
2018-12-13T19:46:48.389Z,9.70
2018-12-13T19:49:16.602Z,11.07
2018-12-13T19:51:44.827Z,10.50
2018-12-13T19:54:13.096Z,11.77
2018-12-13T19:56:41.301Z,10.13
2018-12-13T19:59:10.103Z,10.23
2018-12-13T20:01:38.271Z,10.40
2018-12-13T20:04:06.422Z,10.93
2018-12-13T20:06:34.567Z,9.90
2018-12-13T20:09:04.409Z,10.87
2018-12-13T20:11:32.615Z,11.83
2018-12-13T20:14:00.775Z,11.07
2018-12-13T20:16:29.149Z,11.37
2018-12-13T20:18:57.327Z,11.50
2018-12-13T20:21:25.597Z,12.20
2018-12-13T20:23:53.757Z,11.63
2018-12-13T20:26:21.909Z,12.63
2018-12-13T20:28:50.076Z,11.40
2018-12-13T20:31:18.212Z,13.03
2018-12-13T20:33:46.728Z,12.33
2018-12-13T20:36:14.883Z,15.57
2018-12-13T20:38:43.155Z,14.50
2018-12-13T20:41:11.312Z,12.97
2018-12-13T20:43:39.472Z,13.20
2018-12-13T20:46:07.710Z,13.73
2018-12-13T20:48:35.870Z,16.17
2018-12-13T20:51:04.026Z,13.40
2018-12-13T20:53:32.195Z,13.60
2018-12-13T20:56:00.440Z,13.50
2018-12-13T20:58:28.592Z,14.90
2018-12-13T21:00:56.969Z,15.13
2018-12-13T21:03:25.164Z,14.50
2018-12-13T21:05:53.295Z,16.27
2018-12-13T21:08:21.507Z,14.63
2018-12-13T21:10:49.742Z,16.13
2018-12-13T21:13:17.997Z,12.83
2018-12-13T21:15:46.199Z,16.20
2018-12-13T21:18:14.461Z,15.80
2018-12-13T21:20:42.618Z,18.70
2018-12-13T21:23:10.761Z,15.10
2018-12-13T21:25:39.179Z,15.23
2018-12-13T21:28:07.330Z,15.67
2018-12-13T21:30:35.610Z,15.70
2018-12-13T21:33:03.797Z,15.20
2018-12-13T21:35:32.306Z,16.40
2018-12-13T21:38:01.351Z,16.13
2018-12-13T21:40:29.757Z,15.47
2018-12-13T21:42:57.915Z,16.60
2018-12-13T21:45:26.121Z,16.63
2018-12-13T21:47:54.360Z,16.97
2018-12-13T21:50:22.580Z,16.77
2018-12-13T21:52:50.858Z,19.50
2018-12-13T21:55:19.099Z,17.80
2018-12-13T21:57:47.310Z,20.43
2018-12-13T22:00:15.454Z,19.33
2018-12-13T22:02:43.731Z,18.37
2018-12-13T22:05:13.071Z,20.50
2018-12-13T22:07:41.296Z,19.23
2018-12-13T22:10:09.504Z,21.43
2018-12-13T22:12:37.714Z,22.10
2018-12-13T22:15:08.420Z,20.03
2018-12-13T22:17:36.642Z,20.40
2018-12-13T22:20:06.121Z,19.70
2018-12-13T22:22:34.371Z,21.33
2018-12-13T22:25:02.651Z,21.30
2018-12-13T22:27:30.845Z,22.60
2018-12-13T22:29:59.008Z,22.23
2018-12-13T22:32:27.215Z,23.30
2018-12-13T22:34:55.438Z,23.20
2018-12-13T22:37:23.612Z,21.70
2018-12-13T22:39:51.794Z,23.97
2018-12-13T22:42:20.014Z,23.37
2018-12-13T22:44:48.189Z,24.30
2018-12-13T22:47:16.405Z,24.93
2018-12-13T22:49:44.608Z,23.23
2018-12-13T22:52:12.766Z,25.57
2018-12-13T22:54:40.973Z,24.30
2018-12-13T22:57:09.177Z,24.43
2018-12-13T22:59:37.410Z,24.00
2018-12-13T23:02:05.635Z,25.53
2018-12-13T23:04:33.896Z,22.73
2018-12-13T23:07:02.606Z,25.03
2018-12-13T23:09:30.755Z,25.40
2018-12-13T23:11:58.907Z,26.53
2018-12-13T23:14:27.072Z,23.27
2018-12-13T23:16:55.302Z,25.67
2018-12-13T23:19:23.513Z,25.07
2018-12-13T23:21:51.762Z,25.17
2018-12-13T23:24:20.102Z,28.97
2018-12-13T23:26:48.364Z,26.63
2018-12-13T23:29:16.525Z,25.40
2018-12-13T23:31:44.665Z,27.50
2018-12-13T23:34:12.909Z,28.23
2018-12-13T23:36:41.123Z,27.13
2018-12-13T23:39:09.311Z,28.57
2018-12-13T23:41:39.411Z,31.33
2018-12-13T23:44:07.806Z,30.03
2018-12-13T23:46:36.011Z,28.87
2018-12-13T23:49:04.379Z,30.57
2018-12-13T23:51:32.601Z,28.47
2018-12-13T23:54:01.557Z,30.17
2018-12-13T23:56:29.762Z,30.27
2018-12-13T23:58:58.203Z,29.77
